Time;durP1;ratioP1;P1;durP2;ratioP2;P2;SDS_P1;SDS_P2;PMS_P1;PMS_P2;Temp;Humidity;BMP_temperature;BMP_pressure;BME280_temperature;BME280_humidity;BME280_pressure;Samples;Min_cycle;Max_cycle;Signal;HPM_P1;HPM_P2
2023/02/28 00:00:24;;;;;;;3.55;2.05;;;2.30;99.90;;;;;;4933332;29;36128;-82
2023/02/28 00:02:50;;;;;;;5.97;2.50;;;2.20;99.90;;;;;;4943614;29;37847;-81
2023/02/28 00:05:21;;;;;;;7.90;2.27;;;2.20;99.90;;;;;;4952501;28;39026;-80
2023/02/28 00:07:48;;;;;;;3.90;2.10;;;2.10;99.90;;;;;;4945335;29;39503;-81
2023/02/28 00:10:20;;;;;;;6.90;2.83;;;2.00;99.90;;;;;;4946062;28;37523;-80
2023/02/28 00:12:50;;;;;;;4.82;2.47;;;2.00;99.90;;;;;;4955017;28;37832;-81
2023/02/28 00:15:17;;;;;;;11.60;5.07;;;1.90;99.90;;;;;;4937254;29;38577;-81
2023/02/28 00:17:43;;;;;;;9.70;4.33;;;1.80;99.90;;;;;;4954966;29;38698;-81
2023/02/28 00:20:11;;;;;;;8.33;4.43;;;1.80;99.90;;;;;;4935752;29;36511;-81
2023/02/28 00:22:46;;;;;;;11.00;4.07;;;1.70;99.90;;;;;;4939363;29;37885;-81
2023/02/28 00:25:22;;;;;;;8.67;2.67;;;1.70;99.90;;;;;;4937465;29;37503;-81
2023/02/28 00:27:49;;;;;;;7.60;3.07;;;1.60;99.90;;;;;;4939100;29;36682;-81
2023/02/28 00:30:20;;;;;;;6.10;2.60;;;1.50;99.90;;;;;;4948346;28;37338;-81
2023/02/28 00:32:46;;;;;;;5.63;2.67;;;1.40;99.90;;;;;;4935510;29;38425;-81
2023/02/28 00:35:13;;;;;;;9.00;2.80;;;1.40;99.90;;;;;;4935978;28;38285;-81
2023/02/28 00:37:40;;;;;;;3.97;2.37;;;1.30;99.90;;;;;;4942932;29;37404;-81
2023/02/28 00:40:09;;;;;;;6.93;2.80;;;1.30;99.90;;;;;;4957661;28;37297;-81
2023/02/28 00:42:35;;;;;;;7.83;2.87;;;1.30;99.90;;;;;;4939806;29;38610;-81
2023/02/28 00:45:04;;;;;;;5.77;2.93;;;1.30;99.90;;;;;;4935576;29;37110;-81
2023/02/28 00:47:31;;;;;;;5.17;3.20;;;1.30;99.90;;;;;;4935591;29;47365;-81
2023/02/28 00:49:57;;;;;;;7.33;3.23;;;1.40;99.90;;;;;;4948757;28;38004;-81
2023/02/28 00:52:24;;;;;;;7.67;3.53;;;1.50;99.90;;;;;;4950283;28;38910;-81
2023/02/28 00:54:50;;;;;;;7.67;3.70;;;1.70;99.90;;;;;;4929623;29;39155;-81
2023/02/28 00:57:16;;;;;;;8.80;4.17;;;1.80;99.90;;;;;;4936529;28;37061;-80
2023/02/28 00:59:42;;;;;;;6.83;4.10;;;2.00;99.90;;;;;;4950502;28;36460;-80
2023/02/28 01:02:09;;;;;;;6.97;4.17;;;2.00;99.90;;;;;;4921830;29;37524;-81
2023/02/28 01:04:35;;;;;;;6.93;3.47;;;2.10;99.90;;;;;;4947986;29;38267;-80
2023/02/28 01:07:01;;;;;;;4.63;2.80;;;2.20;99.90;;;;;;4932933;29;36930;-80
2023/02/28 01:09:27;;;;;;;8.43;3.27;;;2.20;99.90;;;;;;4931146;29;47411;-81
2023/02/28 01:11:54;;;;;;;5.23;2.73;;;2.40;99.90;;;;;;4924525;29;38254;-81
2023/02/28 01:14:20;;;;;;;4.83;2.97;;;2.40;99.90;;;;;;4929144;29;37144;-80
2023/02/28 01:16:47;;;;;;;6.80;3.10;;;2.50;99.90;;;;;;4937426;28;36878;-80
2023/02/28 01:19:13;;;;;;;5.83;3.13;;;2.60;99.90;;;;;;4932821;29;38886;-80
2023/02/28 01:21:39;;;;;;;8.57;3.20;;;2.60;99.90;;;;;;4933551;28;39280;-80
2023/02/28 01:24:06;;;;;;;6.53;2.80;;;2.70;99.90;;;;;;4951037;28;39295;-80
2023/02/28 01:26:33;;;;;;;4.37;2.70;;;2.70;99.90;;;;;;4929899;29;36895;-80
2023/02/28 01:28:59;;;;;;;5.73;2.90;;;2.80;99.90;;;;;;4929312;28;36421;-80
2023/02/28 01:31:25;;;;;;;8.90;3.33;;;2.80;99.90;;;;;;4925476;29;38087;-81
2023/02/28 01:33:51;;;;;;;9.53;2.73;;;2.80;99.90;;;;;;4932181;28;37580;-80
2023/02/28 01:36:22;;;;;;;7.47;2.80;;;2.90;99.90;;;;;;4923855;28;36931;-79
2023/02/28 01:38:49;;;;;;;5.77;2.80;;;2.90;99.90;;;;;;4929051;28;35986;-80
2023/02/28 01:41:27;;;;;;;8.83;3.00;;;2.90;99.90;;;;;;4942539;28;39852;-80
2023/02/28 01:44:06;;;;;;;4.83;2.60;;;3.00;99.90;;;;;;4933600;29;36907;-79
2023/02/28 01:46:34;;;;;;;6.90;2.73;;;3.00;99.90;;;;;;4929764;28;47065;-80
2023/02/28 01:49:07;;;;;;;4.73;2.90;;;3.10;99.90;;;;;;4929069;28;36325;-79
2023/02/28 01:51:45;;;;;;;7.23;2.73;;;3.10;99.90;;;;;;4928849;29;47346;-79
2023/02/28 01:54:16;;;;;;;3.50;2.00;;;3.10;99.90;;;;;;4945872;28;39560;-80
2023/02/28 01:57:05;;;;;;;3.60;2.43;;;3.10;99.90;;;;;;4943769;28;37012;-80
2023/02/28 02:00:00;;;;;;;6.13;2.37;;;3.20;99.90;;;;;;4912107;29;47155;-80
2023/02/28 02:05:15;;;;;;;9.40;2.50;;;3.20;99.90;;;;;;5427246;23;20052;-83
2023/02/28 02:07:55;;;;;;;6.70;2.70;;;3.20;99.90;;;;;;4953120;28;47732;-83
2023/02/28 02:10:50;;;;;;;4.90;2.47;;;3.30;99.90;;;;;;4944886;28;37761;-83
2023/02/28 02:13:28;;;;;;;4.80;2.50;;;3.30;99.90;;;;;;4934106;28;38218;-83
2023/02/28 02:16:19;;;;;;;4.53;2.70;;;3.30;99.90;;;;;;4939948;28;39323;-83
2023/02/28 02:19:18;;;;;;;4.23;2.50;;;3.30;99.90;;;;;;4919761;28;48367;-83
2023/02/28 02:25:29;;;;;;;5.28;2.60;;;3.40;99.90;;;;;;4945414;28;20035;-82
2023/02/28 02:28:40;;;;;;;5.73;2.53;;;3.40;99.90;;;;;;5362063;23;50158;-82
2023/02/28 02:31:40;;;;;;;4.67;2.50;;;3.40;99.90;;;;;;4923796;28;50038;-82
2023/02/28 02:37:56;;;;;;;4.87;2.50;;;3.40;99.90;;;;;;4869712;29;40613;-82
2023/02/28 02:41:17;;;;;;;5.03;2.83;;;3.40;99.90;;;;;;4838627;29;50066;-81
2023/02/28 02:44:21;;;;;;;5.33;2.47;;;3.50;99.90;;;;;;4917875;23;48813;-82
2023/02/28 02:47:09;;;;;;;;;;;3.40;99.90;;;;;;4900658;28;50154;-82
2023/02/28 02:49:52;;;;;;;6.57;2.50;;;3.50;99.90;;;;;;4953612;28;49226;-82
2023/02/28 02:52:28;;;;;;;5.90;2.70;;;3.50;99.90;;;;;;4972361;28;39760;-82
2023/02/28 02:55:07;;;;;;;5.67;3.10;;;3.50;99.90;;;;;;4975552;28;39446;-84
2023/02/28 02:58:04;;;;;;;5.60;3.60;;;3.50;99.90;;;;;;4972519;28;49386;-84
2023/02/28 03:00:42;;;;;;;5.10;3.10;;;3.50;99.90;;;;;;4977175;28;47404;-81
2023/02/28 03:03:12;;;;;;;9.00;3.23;;;3.50;99.90;;;;;;4962162;28;38239;-83
2023/02/28 03:05:49;;;;;;;4.87;2.90;;;3.50;99.90;;;;;;4959297;28;47485;-82
2023/02/28 03:08:36;;;;;;;6.27;3.03;;;3.50;99.90;;;;;;4968511;28;38633;-81
2023/02/28 03:11:25;;;;;;;6.47;3.43;;;3.50;99.90;;;;;;4968982;28;40040;-81
2023/02/28 03:14:39;;;;;;;10.30;3.73;;;3.60;99.90;;;;;;4958331;28;35082;-81
2023/02/28 03:17:08;;;;;;;7.67;3.37;;;3.60;99.90;;;;;;4938348;28;48448;-82
2023/02/28 03:20:19;;;;;;;5.83;3.40;;;3.60;99.90;;;;;;4965253;28;37153;-82
2023/02/28 03:23:24;;;;;;;8.67;3.37;;;3.60;99.90;;;;;;4903933;29;50092;-80
2023/02/28 03:26:03;;;;;;;5.30;2.80;;;3.60;99.90;;;;;;4911257;29;39279;-80
2023/02/28 03:29:03;;;;;;;9.27;3.10;;;3.60;99.90;;;;;;4898054;29;48881;-83
2023/02/28 03:31:50;;;;;;;6.83;3.70;;;3.60;99.90;;;;;;4900042;29;48781;-82
2023/02/28 03:34:48;;;;;;;7.47;3.07;;;3.60;99.90;;;;;;4886049;29;38544;-81
2023/02/28 03:37:24;;;;;;;7.80;3.07;;;3.70;99.90;;;;;;4889814;29;38946;-82
2023/02/28 03:40:03;;;;;;;;;;;3.70;99.90;;;;;;4965010;28;39365;-81
2023/02/28 03:43:04;;;;;;;7.20;3.17;;;3.70;99.90;;;;;;4948999;28;36989;-81
2023/02/28 03:45:43;;;;;;;7.80;3.40;;;3.70;99.90;;;;;;4958581;28;47428;-81
2023/02/28 03:48:49;;;;;;;8.57;3.63;;;3.70;99.90;;;;;;4968317;28;39546;-82
2023/02/28 03:51:26;;;;;;;8.20;3.37;;;3.70;99.90;;;;;;4958927;28;37991;-83
2023/02/28 03:54:08;;;;;;;7.03;3.30;;;3.80;99.90;;;;;;4933775;28;37425;-82
2023/02/28 03:56:56;;;;;;;7.35;3.75;;;3.80;99.90;;;;;;4951006;28;48862;-81
2023/02/28 03:59:59;;;;;;;5.70;3.53;;;3.80;99.90;;;;;;4963192;28;38808;-81
2023/02/28 04:02:30;;;;;;;7.25;3.67;;;3.80;99.90;;;;;;4933441;28;37447;-81
2023/02/28 04:04:59;;;;;;;6.53;3.73;;;3.80;99.90;;;;;;4947108;28;37754;-82
2023/02/28 04:07:35;;;;;;;9.07;3.70;;;3.80;99.90;;;;;;4938620;28;39297;-81
2023/02/28 04:10:13;;;;;;;6.80;3.90;;;3.90;99.90;;;;;;4965859;28;38435;-81
2023/02/28 04:12:53;;;;;;;5.77;3.57;;;3.90;99.90;;;;;;4941205;28;48489;-82
2023/02/28 04:15:27;;;;;;;6.87;3.83;;;3.90;99.90;;;;;;4939827;28;37627;-81
2023/02/28 04:18:02;;;;;;;6.13;3.73;;;3.90;99.90;;;;;;4961121;28;38377;-81
2023/02/28 04:20:30;;;;;;;6.37;3.53;;;3.90;99.90;;;;;;4936475;28;48897;-82
2023/02/28 04:23:04;;;;;;;6.83;4.17;;;3.90;99.90;;;;;;4956107;28;37244;-81
2023/02/28 04:25:52;;;;;;;6.50;3.70;;;3.90;99.90;;;;;;4942898;28;47735;-81
2023/02/28 04:28:39;;;;;;;8.90;4.20;;;3.90;99.90;;;;;;4967248;28;38648;-82
2023/02/28 04:31:29;;;;;;;6.00;3.63;;;3.90;99.90;;;;;;4940526;28;38661;-81
2023/02/28 04:34:36;;;;;;;7.30;3.63;;;4.00;99.90;;;;;;4971637;28;38779;-83
2023/02/28 04:37:08;;;;;;;4.57;3.10;;;4.00;99.90;;;;;;5454095;23;49506;-84
2023/02/28 04:39:41;;;;;;;7.40;4.00;;;4.00;99.90;;;;;;4974179;28;38810;-81
2023/02/28 04:42:17;;;;;;;7.57;3.90;;;4.00;99.90;;;;;;4967187;28;38835;-81
2023/02/28 04:44:44;;;;;;;7.90;4.37;;;4.00;99.90;;;;;;4973980;28;36740;-82
2023/02/28 04:47:18;;;;;;;6.87;4.60;;;4.00;99.90;;;;;;4954572;28;36455;-82
2023/02/28 04:50:01;;;;;;;8.00;4.30;;;4.00;99.90;;;;;;4937832;28;39229;-81
2023/02/28 04:52:30;;;;;;;;;;;4.10;99.90;;;;;;4970389;28;37541;-81
2023/02/28 04:58:05;;;;;;;6.73;4.30;;;4.00;99.90;;;;;;5029715;23;20039;-83
2023/02/28 05:03:13;;;;;;;8.30;5.10;;;4.10;99.90;;;;;;5572294;23;20052;-83
2023/02/28 05:05:41;;;;;;;8.13;4.80;;;4.10;99.90;;;;;;4954881;28;38748;-83
2023/02/28 05:08:11;;;;;;;8.77;5.30;;;4.10;99.90;;;;;;4935921;28;37707;-83
2023/02/28 05:13:29;;;;;;;12.37;4.97;;;4.10;99.90;;;;;;5106328;23;20027;-83
2023/02/28 05:16:06;;;;;;;8.87;5.40;;;4.10;99.90;;;;;;4952562;28;39612;-84
2023/02/28 05:18:55;;;;;;;8.97;5.20;;;4.10;99.90;;;;;;4929713;29;48025;-82
2023/02/28 05:27:10;;;;;;;10.73;5.70;;;4.10;99.90;;;;;;5392584;23;20019;-81
2023/02/28 05:30:10;;;;;;;7.90;4.70;;;4.00;99.90;;;;;;4942960;28;35902;-81
2023/02/28 05:32:51;;;;;;;10.20;6.13;;;4.10;99.90;;;;;;4932660;28;50033;-80
2023/02/28 05:38:14;;;;;;;9.57;5.50;;;4.10;99.90;;;;;;5225080;23;20043;-82
2023/02/28 05:40:40;;;;;;;12.77;5.50;;;4.00;99.90;;;;;;5695313;23;38479;-81
2023/02/28 05:43:16;;;;;;;8.40;4.90;;;4.10;99.90;;;;;;4955332;28;39008;-83
2023/02/28 05:45:43;;;;;;;8.30;5.43;;;4.10;99.90;;;;;;4966203;28;40229;-82
2023/02/28 05:48:22;;;;;;;7.67;5.33;;;4.10;99.90;;;;;;4936389;28;40492;-82
2023/02/28 05:56:50;;;;;;;9.63;5.50;;;4.10;99.90;;;;;;6040058;23;21142;31
2023/02/28 06:04:31;;;;;;;8.03;4.93;;;4.00;99.90;;;;;;5140724;23;20032;-81
2023/02/28 06:07:13;;;;;;;10.43;5.40;;;4.00;99.90;;;;;;4916017;29;38301;-82
2023/02/28 06:09:40;;;;;;;10.37;5.73;;;3.90;99.90;;;;;;4906814;29;48215;-82
2023/02/28 06:12:09;;;;;;;7.90;5.47;;;3.80;99.90;;;;;;4938085;28;36243;-82
2023/02/28 06:14:36;;;;;;;9.93;4.93;;;3.80;99.90;;;;;;4949778;28;40162;-82
2023/02/28 06:17:04;;;;;;;8.97;4.63;;;3.70;99.90;;;;;;4938109;28;37851;-82
2023/02/28 06:19:31;;;;;;;7.03;4.37;;;3.60;99.90;;;;;;4938601;29;37755;-80
2023/02/28 06:21:59;;;;;;;9.17;4.27;;;3.60;99.90;;;;;;4935298;29;36082;-82
2023/02/28 06:24:31;;;;;;;7.80;4.13;;;3.50;99.90;;;;;;4946809;28;38637;-81
2023/02/28 06:27:04;;;;;;;7.37;3.67;;;3.40;99.90;;;;;;4952066;28;40243;-82
2023/02/28 06:29:39;;;;;;;9.40;3.30;;;3.50;99.90;;;;;;4919367;28;47777;-80
2023/02/28 06:32:06;;;;;;;4.53;3.20;;;3.30;99.90;;;;;;4922071;28;36498;-82
2023/02/28 06:34:33;;;;;;;7.67;3.67;;;3.30;99.90;;;;;;4930901;28;38578;-82
2023/02/28 06:37:04;;;;;;;6.90;4.10;;;3.30;99.90;;;;;;4946532;28;38217;-80
2023/02/28 06:39:32;;;;;;;7.17;4.20;;;3.30;99.90;;;;;;4927718;29;47547;-80
2023/02/28 06:42:01;;;;;;;7.37;3.93;;;3.30;99.90;;;;;;4950392;28;37432;-81
2023/02/28 06:44:46;;;;;;;6.43;3.70;;;3.40;99.90;;;;;;4919694;28;20027;-82
2023/02/28 07:13:03;;;;;;;6.10;3.70;;;2.60;99.90;;;;;;6012103;23;20027;31
2023/02/28 07:21:36;;;;;;;5.20;3.63;;;2.30;99.90;;;;;;5318859;23;19915;-84
2023/02/28 07:24:25;;;;;;;7.90;4.50;;;2.20;99.90;;;;;;4990764;23;39544;-83
2023/02/28 07:27:11;;;;;;;10.00;4.87;;;2.20;99.90;;;;;;4961923;28;36565;-83
2023/02/28 07:29:42;;;;;;;10.00;4.70;;;2.10;99.90;;;;;;4963644;28;47189;-83
2023/02/28 07:32:26;;;;;;;9.50;4.83;;;2.10;99.90;;;;;;4975047;28;39084;-83
2023/02/28 07:35:08;;;;;;;8.17;4.87;;;1.90;99.90;;;;;;4958934;28;37924;-83
2023/02/28 07:40:17;;;;;;;7.17;4.40;;;1.80;99.90;;;;;;5003411;23;20044;-83
2023/02/28 07:46:09;;;;;;;6.53;4.93;;;1.70;99.90;;;;;;4954880;28;49718;-85
2023/02/28 07:48:35;;;;;;;6.27;5.10;;;1.70;99.90;;;;;;4943391;29;36254;-85
2023/02/28 07:51:02;;;;;;;8.97;6.13;;;1.70;99.90;;;;;;4947783;28;39233;-82
2023/02/28 07:53:29;;;;;;;6.70;5.10;;;1.60;99.90;;;;;;4937430;28;46935;-84
2023/02/28 07:56:02;;;;;;;9.67;6.67;;;1.60;99.90;;;;;;4932763;28;38532;-84
2023/02/28 07:58:28;;;;;;;;;;;1.60;99.90;;;;;;4928315;28;48189;-84
2023/02/28 08:00:55;;;;;;;11.67;6.47;;;1.60;99.90;;;;;;4949315;28;40315;-84
2023/02/28 08:03:23;;;;;;;10.37;7.53;;;1.60;99.90;;;;;;4931643;28;37508;-82
2023/02/28 08:05:49;;;;;;;14.57;7.50;;;1.60;99.90;;;;;;4944092;28;38189;-82
2023/02/28 08:08:16;;;;;;;9.13;7.13;;;1.60;99.90;;;;;;4915089;29;35616;-81
2023/02/28 08:10:43;;;;;;;9.20;6.30;;;1.70;99.90;;;;;;4926957;29;38007;-83
2023/02/28 08:13:09;;;;;;;8.53;6.37;;;1.70;99.90;;;;;;4939939;28;39642;-82
2023/02/28 08:15:36;;;;;;;9.27;6.30;;;1.60;99.90;;;;;;4931121;28;37071;-82
2023/02/28 08:18:02;;;;;;;10.77;7.87;;;1.70;99.90;;;;;;4927502;29;36126;-81
2023/02/28 08:20:28;;;;;;;11.60;7.57;;;1.80;99.90;;;;;;4917668;28;37444;-82
2023/02/28 08:22:54;;;;;;;10.20;6.97;;;1.70;99.90;;;;;;4926186;28;37889;-82
2023/02/28 08:25:21;;;;;;;10.43;7.53;;;1.70;99.90;;;;;;4935222;28;36821;-82
2023/02/28 08:27:47;;;;;;;10.07;7.83;;;1.70;99.90;;;;;;4932249;28;36342;-83
2023/02/28 08:30:18;;;;;;;11.57;7.77;;;1.80;99.90;;;;;;4948847;28;39523;-84
2023/02/28 08:32:44;;;;;;;14.87;9.77;;;1.80;99.90;;;;;;4964746;28;38429;-84
2023/02/28 08:35:19;;;;;;;13.83;8.93;;;1.80;99.90;;;;;;4958444;28;39058;-82
2023/02/28 08:37:49;;;;;;;13.27;8.80;;;1.90;99.90;;;;;;4942424;29;35555;-83
2023/02/28 08:40:18;;;;;;;11.20;7.43;;;2.00;99.90;;;;;;5185895;23;38494;-84
2023/02/28 08:42:45;;;;;;;13.03;7.90;;;2.10;99.90;;;;;;4944655;28;37961;-83
2023/02/28 08:45:22;;;;;;;9.70;7.27;;;2.20;99.90;;;;;;4944895;28;37193;-84
2023/02/28 08:48:14;;;;;;;12.80;7.10;;;2.20;99.90;;;;;;4942648;28;39185;-83
2023/02/28 08:53:23;;;;;;;11.15;6.65;;;2.20;99.90;;;;;;5569105;23;20039;-82
2023/02/28 08:56:17;;;;;;;11.23;5.93;;;2.30;99.90;;;;;;4977096;28;37334;-83
2023/02/28 08:58:47;;;;;;;5.83;4.80;;;2.40;99.90;;;;;;4965552;28;50289;-83
2023/02/28 09:03:51;;;;;;;5.23;3.40;;;2.50;99.90;;;;;;5448415;23;20082;-82
2023/02/28 09:06:19;;;;;;;6.53;3.37;;;2.50;99.90;;;;;;4914715;28;37156;-81
2023/02/28 09:08:45;;;;;;;7.63;3.33;;;2.50;99.90;;;;;;4918927;28;35806;-82
2023/02/28 09:11:11;;;;;;;10.67;3.83;;;2.60;99.90;;;;;;4999357;23;38973;-82
2023/02/28 09:13:38;;;;;;;5.57;3.40;;;2.60;99.90;;;;;;4933418;28;38844;-82
2023/02/28 09:16:10;;;;;;;8.93;4.00;;;2.70;99.90;;;;;;4951525;28;37993;-82
2023/02/28 09:18:37;;;;;;;10.07;3.87;;;2.70;99.90;;;;;;4952685;28;37183;-81
2023/02/28 09:21:15;;;;;;;4.67;3.00;;;2.80;99.90;;;;;;4949559;28;40147;-81
2023/02/28 09:23:42;;;;;;;6.10;3.40;;;2.90;99.90;;;;;;4937122;28;38669;-82
2023/02/28 09:26:31;;;;;;;6.60;3.60;;;3.10;99.90;;;;;;4939414;28;37364;-82
2023/02/28 09:28:58;;;;;;;5.20;3.70;;;3.20;99.90;;;;;;4934621;28;35927;-79
2023/02/28 09:31:28;;;;;;;5.73;3.93;;;3.40;99.90;;;;;;4943529;28;39181;-80
2023/02/28 09:33:56;;;;;;;11.67;4.30;;;3.40;99.90;;;;;;4931925;28;37267;-82
2023/02/28 09:36:24;;;;;;;8.77;4.00;;;3.50;99.90;;;;;;4938290;28;36368;-82
2023/02/28 09:38:52;;;;;;;7.20;3.83;;;3.40;99.90;;;;;;4956251;28;38224;-82
2023/02/28 09:41:20;;;;;;;8.77;4.37;;;3.40;99.90;;;;;;4936543;28;37674;-83
2023/02/28 09:43:55;;;;;;;6.83;4.20;;;3.40;99.90;;;;;;4944646;28;37683;-82
2023/02/28 09:46:36;;;;;;;6.60;4.30;;;3.60;99.90;;;;;;4944780;28;39416;-82
2023/02/28 09:49:12;;;;;;;7.00;3.90;;;3.60;99.90;;;;;;4933522;28;36369;-82
2023/02/28 09:51:44;;;;;;;6.60;4.20;;;3.60;99.90;;;;;;4962817;28;38813;-83
2023/02/28 09:54:22;;;;;;;5.47;4.03;;;3.70;99.90;;;;;;4951326;28;39638;-81
2023/02/28 09:56:53;;;;;;;8.30;4.13;;;3.70;99.90;;;;;;4938450;28;38040;-80
2023/02/28 09:59:39;;;;;;;5.77;4.03;;;3.80;99.90;;;;;;4950366;28;38308;-80
2023/02/28 10:02:38;;;;;;;5.73;3.43;;;3.80;99.90;;;;;;4935455;28;37634;-80
2023/02/28 10:05:26;;;;;;;7.13;3.83;;;3.90;99.90;;;;;;4933199;28;38370;-79
2023/02/28 10:08:05;;;;;;;8.00;4.50;;;4.00;99.90;;;;;;4939381;28;37196;-80
2023/02/28 10:10:42;;;;;;;3.97;3.20;;;3.90;99.90;;;;;;4953919;28;49112;-80
2023/02/28 10:13:26;;;;;;;6.50;3.23;;;4.10;99.90;;;;;;4936172;28;38447;-80
2023/02/28 10:16:00;;;;;;;5.00;3.73;;;4.10;99.90;;;;;;4950640;28;38146;-80
2023/02/28 10:18:41;;;;;;;7.13;3.57;;;4.10;99.90;;;;;;4937307;28;37298;-80
2023/02/28 10:21:19;;;;;;;10.63;3.20;;;4.10;99.90;;;;;;4932851;28;35932;-80
2023/02/28 10:23:47;;;;;;;4.30;3.23;;;4.10;99.90;;;;;;4952366;28;38501;-82
2023/02/28 10:26:16;;;;;;;5.27;3.10;;;4.10;99.90;;;;;;4934678;28;37410;-82
2023/02/28 10:28:43;;;;;;;6.30;2.60;;;4.00;99.90;;;;;;4944155;28;37221;-82
2023/02/28 10:31:19;;;;;;;5.27;2.90;;;4.10;99.90;;;;;;4936571;28;37238;-82
2023/02/28 10:33:45;;;;;;;5.70;3.20;;;4.10;99.90;;;;;;4937023;28;38871;-82
2023/02/28 10:36:18;;;;;;;6.47;3.17;;;4.20;99.90;;;;;;4936819;28;37033;-82
2023/02/28 10:38:45;;;;;;;;;;;4.40;99.90;;;;;;4935528;28;38707;-82
2023/02/28 10:41:34;;;;;;;3.80;2.60;;;4.40;99.90;;;;;;4940480;28;36184;-82
2023/02/28 10:44:15;;;;;;;5.87;2.83;;;4.50;99.90;;;;;;4936867;28;39070;-82
2023/02/28 10:46:42;;;;;;;3.30;2.57;;;4.90;99.90;;;;;;4954059;28;48993;-82
2023/02/28 10:49:21;;;;;;;6.13;2.83;;;4.90;99.90;;;;;;4955070;28;37969;-82
2023/02/28 10:51:51;;;;;;;3.10;2.47;;;5.10;99.90;;;;;;4942881;28;37579;-82
2023/02/28 10:54:35;;;;;;;2.60;2.40;;;5.10;99.90;;;;;;4940485;28;37351;-82
2023/02/28 10:57:21;;;;;;;3.20;2.10;;;5.00;99.90;;;;;;4937705;28;36983;-82
2023/02/28 10:59:52;;;;;;;4.03;2.10;;;5.40;99.90;;;;;;4955464;28;48656;-82
2023/02/28 11:02:38;;;;;;;3.50;2.13;;;5.50;99.90;;;;;;4939595;28;36197;-82
2023/02/28 11:05:24;;;;;;;3.57;2.27;;;5.40;99.90;;;;;;4939240;28;37606;-82
2023/02/28 11:07:56;;;;;;;3.00;2.33;;;5.30;99.90;;;;;;4960837;28;48078;-83
2023/02/28 11:10:28;;;;;;;3.70;2.72;;;5.30;99.90;;;;;;4960843;28;38447;-82
2023/02/28 11:12:56;;;;;;;4.10;2.20;;;5.70;99.90;;;;;;4942992;28;35964;-82
2023/02/28 11:15:27;;;;;;;2.80;2.20;;;5.90;99.90;;;;;;4954122;28;37716;-82
2023/02/28 11:18:11;;;;;;;2.40;1.97;;;5.60;99.90;;;;;;4962986;28;38581;-82
2023/02/28 11:20:39;;;;;;;2.87;1.93;;;5.60;99.90;;;;;;4959172;28;46268;-83
2023/02/28 11:23:13;;;;;;;1.90;1.60;;;5.60;99.90;;;;;;4947006;28;35917;-82
2023/02/28 11:25:39;;;;;;;2.73;1.77;;;5.60;99.90;;;;;;4962891;28;39112;-82
2023/02/28 11:28:28;;;;;;;2.43;1.97;;;5.50;99.90;;;;;;4951459;28;37784;-83
2023/02/28 11:31:19;;;;;;;5.50;1.60;;;5.60;99.90;;;;;;4951786;28;36913;-83
2023/02/28 11:33:50;;;;;;;2.33;1.90;;;5.80;99.90;;;;;;4952679;28;47014;-83
2023/02/28 11:36:26;;;;;;;2.73;1.60;;;5.70;99.90;;;;;;4965675;28;38063;-82
2023/02/28 11:38:55;;;;;;;1.93;1.40;;;5.90;99.90;;;;;;4973506;28;38800;-82
2023/02/28 11:42:02;;;;;;;3.10;1.77;;;5.90;99.90;;;;;;4961402;28;37777;-83
2023/02/28 11:44:54;;;;;;;2.00;1.40;;;6.10;99.90;;;;;;4972111;28;48949;-83
2023/02/28 11:47:37;;;;;;;2.45;1.73;;;6.50;99.90;;;;;;4961776;28;39460;-81
2023/02/28 11:50:30;;;;;;;1.63;1.23;;;6.80;99.90;;;;;;4945856;28;37413;-83
2023/02/28 12:06:44;;;;;;;3.70;1.60;;;6.80;99.90;;;;;;4922596;29;20033;-83
2023/02/28 12:09:23;;;;;;;1.63;1.50;;;7.30;99.90;;;;;;4924676;29;37844;-81
2023/02/28 12:18:50;;;;;;;4.70;1.70;;;7.50;99.90;;;;;;5266769;23;20036;-81
2023/02/28 12:21:33;;;;;;;2.70;1.40;;;7.10;99.90;;;;;;4931223;28;47527;-83
2023/02/28 12:26:40;;;;;;;2.47;1.50;;;7.20;99.90;;;;;;5973439;23;20030;-83
2023/02/28 12:32:14;;;;;;;3.33;1.60;;;7.20;99.90;;;;;;5482139;23;20029;-83
2023/02/28 12:41:01;;;;;;;2.50;1.60;;;7.50;99.90;;;;;;5335554;23;20055;-84
2023/02/28 13:14:34;;;;;;;1.63;1.30;;;7.30;99.90;;;;;;5801878;23;20056;-82
2023/02/28 13:28:57;;;;;;;3.73;1.70;;;7.60;99.90;;;;;;5558139;23;20044;-82
2023/02/28 13:31:29;;;;;;;2.20;1.73;;;7.80;99.90;;;;;;4906097;28;37542;-83
2023/02/28 14:46:24;;;;;;;2.13;1.50;;;7.30;99.90;;;;;;5430367;23;19927;-80
2023/02/28 14:48:50;;;;;;;4.43;1.77;;;7.40;99.90;;;;;;4944098;28;40749;-79
2023/02/28 14:51:25;;;;;;;6.00;1.93;;;7.40;99.90;;;;;;4926103;28;39110;-81
2023/02/28 14:53:56;;;;;;;2.73;1.87;;;7.40;99.90;;;;;;4924869;28;38993;-79
2023/02/28 14:56:38;;;;;;;4.18;2.03;;;7.40;99.90;;;;;;4920732;28;37522;-80
2023/02/28 14:59:18;;;;;;;2.87;1.90;;;7.40;99.90;;;;;;4941582;28;37598;-81
2023/02/28 15:01:44;;;;;;;2.10;1.83;;;7.40;99.90;;;;;;4925959;28;38897;-78
2023/02/28 15:04:23;;;;;;;2.83;1.87;;;7.60;99.90;;;;;;4923253;28;38293;-80
2023/02/28 15:07:38;;;;;;;1.90;1.73;;;7.60;99.90;;;;;;4917404;28;35749;-80
2023/02/28 15:10:21;;;;;;;3.17;1.80;;;7.60;99.90;;;;;;4924545;28;48001;-80
2023/02/28 15:13:14;;;;;;;2.50;2.05;;;7.40;99.90;;;;;;4870545;28;47624;-80
2023/02/28 15:16:28;;;;;;;2.87;2.10;;;7.20;99.90;;;;;;4874237;29;47236;-80
2023/02/28 15:19:05;;;;;;;2.07;1.73;;;7.10;99.90;;;;;;4920149;28;47363;-79
2023/02/28 15:21:35;;;;;;;2.20;1.70;;;7.10;99.90;;;;;;4917361;28;47119;-79
2023/02/28 15:24:24;;;;;;;3.10;1.90;;;7.10;99.90;;;;;;4927739;28;39077;-81
2023/02/28 15:26:56;;;;;;;5.63;1.90;;;7.10;99.90;;;;;;4920027;28;36965;-80
2023/02/28 15:29:27;;;;;;;2.53;1.80;;;7.10;99.90;;;;;;4927031;28;37405;-80
2023/02/28 15:32:02;;;;;;;4.10;1.87;;;7.00;99.90;;;;;;4926737;28;38875;-80
2023/02/28 15:34:38;;;;;;;2.57;1.70;;;7.00;99.90;;;;;;4917668;28;47233;-81
2023/02/28 15:37:27;;;;;;;2.53;1.80;;;7.00;99.90;;;;;;4926419;28;38378;-80
2023/02/28 15:39:55;;;;;;;2.73;1.90;;;7.00;99.90;;;;;;4926612;28;36268;-80
2023/02/28 15:42:31;;;;;;;2.73;1.97;;;6.90;99.90;;;;;;4927540;28;39593;-80
2023/02/28 15:44:59;;;;;;;2.40;1.80;;;7.00;99.90;;;;;;4931413;28;38696;-80
2023/02/28 15:47:29;;;;;;;2.80;1.70;;;6.90;99.90;;;;;;4926890;28;38454;-80
2023/02/28 15:50:02;;;;;;;1.87;1.63;;;6.90;99.90;;;;;;4926740;28;37243;-80
2023/02/28 15:52:41;;;;;;;2.23;1.70;;;6.80;99.90;;;;;;4927731;28;37966;-80
2023/02/28 15:55:27;;;;;;;5.93;2.13;;;6.80;99.90;;;;;;4930065;28;38594;-81
2023/02/28 15:57:56;;;;;;;3.57;2.03;;;6.80;99.90;;;;;;4928993;28;37253;-81
2023/02/28 16:00:24;;;;;;;1.83;1.73;;;6.80;99.90;;;;;;4930935;28;36501;-81
2023/02/28 16:02:51;;;;;;;2.63;1.87;;;6.70;99.90;;;;;;4935918;29;39053;-80
2023/02/28 16:05:31;;;;;;;2.50;1.87;;;6.70;99.90;;;;;;4934211;28;37457;-80
2023/02/28 16:08:13;;;;;;;2.10;1.90;;;6.60;99.90;;;;;;5147371;23;38527;-80
2023/02/28 16:10:39;;;;;;;2.57;1.97;;;6.60;99.90;;;;;;4929788;28;48756;-80
2023/02/28 16:13:05;;;;;;;2.37;1.93;;;6.50;99.90;;;;;;4923774;28;39153;-80
2023/02/28 16:15:42;;;;;;;3.10;2.20;;;6.50;99.90;;;;;;4927642;28;37342;-80
2023/02/28 16:18:11;;;;;;;2.57;1.80;;;6.50;99.90;;;;;;4923143;28;36059;-80
2023/02/28 16:20:37;;;;;;;2.63;1.97;;;6.50;99.90;;;;;;4925524;28;35980;-79
2023/02/28 16:23:03;;;;;;;4.87;2.00;;;6.40;99.90;;;;;;4926126;28;38945;-80
2023/02/28 16:25:41;;;;;;;3.50;2.07;;;6.40;99.90;;;;;;4929842;28;38149;-79
2023/02/28 16:28:17;;;;;;;2.83;1.90;;;6.30;99.90;;;;;;4935816;28;39501;-80
2023/02/28 16:30:43;;;;;;;3.07;2.07;;;6.30;99.90;;;;;;4936214;28;36839;-80
2023/02/28 16:33:09;;;;;;;2.20;1.83;;;6.30;99.90;;;;;;4940916;28;38599;-81
2023/02/28 16:35:36;;;;;;;2.40;1.90;;;6.20;99.90;;;;;;4931625;28;40239;-81
2023/02/28 16:38:02;;;;;;;3.63;2.10;;;6.20;99.90;;;;;;4915540;28;37082;-79
2023/02/28 16:40:34;;;;;;;7.13;2.50;;;6.10;99.90;;;;;;5330245;23;35851;-80
2023/02/28 16:43:04;;;;;;;3.15;2.47;;;6.10;99.90;;;;;;4923440;28;38115;-78
2023/02/28 16:45:30;;;;;;;3.20;2.00;;;5.90;99.90;;;;;;4905721;29;46810;-78
2023/02/28 16:47:56;;;;;;;3.30;2.20;;;5.80;99.90;;;;;;4911891;28;38583;-79
2023/02/28 16:50:28;;;;;;;3.33;2.53;;;5.80;99.90;;;;;;4913421;28;36691;-78
2023/02/28 16:52:54;;;;;;;3.00;2.20;;;5.70;99.90;;;;;;4923248;28;37610;-78
2023/02/28 16:55:22;;;;;;;6.80;2.77;;;5.50;99.90;;;;;;4911932;28;38258;-79
2023/02/28 16:57:53;;;;;;;4.37;3.07;;;5.40;99.90;;;;;;4927913;29;36398;-79
2023/02/28 17:00:19;;;;;;;6.00;4.87;;;5.40;99.90;;;;;;4924850;28;37520;-78
2023/02/28 17:02:45;;;;;;;6.80;5.30;;;5.30;99.90;;;;;;4912713;29;38956;-79
2023/02/28 17:05:18;;;;;;;4.63;3.20;;;5.30;99.90;;;;;;4952823;28;39065;-82
2023/02/28 17:21:36;;;;;;;4.77;2.97;;;5.00;99.90;;;;;;5397022;23;1703229;-82
2023/02/28 17:27:12;;;;;;;9.38;2.83;;;4.80;99.90;;;;;;5991998;23;20998;-79
2023/02/28 18:11:19;;;;;;;5.87;4.83;;;4.30;99.90;;;;;;5680318;23;20040;-84
2023/02/28 18:13:56;;;;;;;6.90;4.80;;;4.20;99.90;;;;;;5817176;23;39027;31
2023/02/28 18:17:27;;;;;;;7.43;4.73;;;4.10;99.90;;;;;;5059061;23;38132;-83
2023/02/28 18:20:04;;;;;;;5.20;4.03;;;4.10;99.90;;;;;;4942107;28;49939;-83
2023/02/28 18:23:04;;;;;;;5.20;3.30;;;4.00;99.90;;;;;;4929139;28;46964;-84
2023/02/28 18:25:42;;;;;;;8.30;4.13;;;3.90;99.90;;;;;;4947105;28;48567;-82
2023/02/28 18:28:56;;;;;;;4.13;3.47;;;3.90;99.90;;;;;;4952592;28;39676;-83